Date,TemperatureHighF,TemperatureAvgF,TemperatureLowF,DewpointHighF,DewpointAvgF,DewpointLowF,HumidityHigh,HumidityAvg,HumidityLow,PressureMaxIn,PressureMinIn,WindSpeedMaxMPH,WindSpeedAvgMPH,GustSpeedMaxMPH,PrecipitationSumIn
2012-1-1,73,61,49,64,56,36,99,83,51,30.22,30.06,6,2,15,0.01
2012-1-2,53,44,37,37,24,11,78,48,26,30.34,30.19,5,2,16,0.01
2012-1-3,44,33,24,19,14,9,81,47,31,30.50,30.33,4,1,12,0.00
2012-1-4,55,36,20,38,21,11,89,62,18,30.44,30.26,5,0,10,0.00
2012-1-5,66,49,38,49,43,37,98,80,45,30.27,30.14,5,1,8,0.00
2012-1-6,68,51,35,52,45,34,99,84,48,30.19,30.06,4,0,9,0.00
2012-1-7,73,60,51,59,55,51,99,85,56,30.14,30.03,5,1,11,0.01
2012-1-8,73,61,52,63,58,51,99,90,62,30.18,30.09,8,1,15,0.01
2012-1-9,73,62,54,61,58,53,99,88,53,30.17,30.04,3,0,13,0.01
2012-1-10,64,60,53,62,59,52,99,96,91,30.04,29.73,3,0,8,0.23
2012-1-11,64,54,41,63,48,40,98,82,60,29.77,29.61,9,3,21,0.09
2012-1-12,68,48,36,58,41,24,99,80,49,30.06,29.67,9,3,25,0.01
2012-1-13,46,34,25,24,21,18,86,61,33,30.27,30.06,5,1,12,0.01
2012-1-14,57,40,24,34,24,17,90,58,25,30.38,30.24,5,1,13,0.00
2012-1-15,65,46,33,35,32,29,91,62,26,30.46,30.29,3,0,9,0.00
2012-1-16,68,51,36,47,35,28,93,57,27,30.42,30.24,6,1,10,0.00
2012-1-17,71,59,48,62,56,46,99,91,65,30.25,29.96,9,1,22,1.22
2012-1-18,60,49,34,60,43,32,99,82,47,30.15,29.96,4,1,9,1.22
2012-1-19,63,46,30,44,33,29,97,66,28,30.17,30.04,5,1,10,0.00
2012-1-20,69,60,48,65,57,43,97,90,76,30.07,29.96,7,2,16,0.08
2012-1-21,76,67,62,66,63,61,99,89,68,30.01,29.88,10,3,16,0.39
2012-1-22,75,67,62,68,65,62,100,93,77,30.05,29.97,6,1,12,0.50
2012-1-23,74,64,56,67,62,55,99,93,76,30.04,29.92,8,2,21,1.59
2012-1-24,73,58,48,57,52,47,100,83,51,30.17,30.02,3,0,7,0.01
2012-1-25,77,65,55,65,57,48,91,77,57,30.13,29.99,5,2,14,0.00
2012-1-26,71,64,60,66,62,58,98,95,82,30.01,29.72,5,2,18,0.64
2012-1-27,62,53,39,59,44,35,95,74,37,30.06,29.78,6,2,19,0.06
2012-1-28,67,50,35,47,41,34,99,74,41,30.25,30.06,4,0,10,0.00
2012-1-29,62,46,33,38,24,7,82,50,12,30.41,30.24,3,0,10,0.00
2012-1-30,64,46,30,34,27,17,86,53,20,30.44,30.32,3,0,7,0.00
2012-1-31,72,55,43,50,43,30,94,65,45,30.35,30.21,6,1,14,0.00
2012-2-1,63,56,46,61,54,45,99,96,88,30.24,30.08,5,1,12,0.48
2012-2-2,74,61,53,62,59,52,100,91,63,30.19,30.10,2,0,6,0.09
2012-2-3,66,58,52,57,53,47,99,84,67,30.23,30.15,5,1,12,0.04
2012-2-4,74,64,55,64,59,53,97,85,69,30.17,30.03,6,2,11,0.02
2012-2-5,68,62,53,62,59,51,99,91,76,30.09,30.00,2,0,7,0.02
2012-2-6,65,55,49,54,49,46,93,81,64,30.14,30.05,2,0,5,0.01
2012-2-7,69,55,46,52,49,43,98,82,51,30.15,30.05,3,0,6,0.00
2012-2-8,66,52,44,43,39,36,90,64,36,30.21,30.10,3,1,11,0.00
2012-2-9,59,46,34,39,36,32,93,71,40,30.28,30.14,3,0,9,0.00
2012-2-10,59,49,40,46,40,37,94,73,46,30.15,29.95,1,0,5,0.01
2012-2-11,48,42,29,45,29,11,95,63,35,30.35,29.93,7,3,19,0.01
2012-2-12,46,32,22,19,14,10,69,48,25,30.47,30.32,4,1,12,0.00
2012-2-13,56,39,22,34,20,16,80,51,21,30.31,30.02,3,1,13,0.00
2012-2-14,52,47,39,51,44,25,97,88,42,30.08,29.94,7,1,11,0.09
2012-2-15,68,54,42,56,49,41,99,84,54,30.17,30.06,3,1,7,0.01
2012-2-16,71,63,57,67,62,55,99,95,85,30.08,29.98,5,1,8,0.88
2012-2-17,69,58,50,55,53,48,98,85,56,30.08,29.97,3,0,6,0.04
2012-2-18,59,54,49,58,53,48,99,96,90,30.01,29.66,12,2,22,2.29
2012-2-19,59,52,40,58,50,38,100,92,77,30.06,29.64,7,2,20,1.59
2012-2-20,59,46,34,44,40,33,98,80,52,30.19,30.04,4,1,10,0.01
2012-2-21,68,55,45,55,50,42,98,82,60,30.21,30.04,4,1,9,0.02
2012-2-22,67,61,54,65,59,54,99,92,74,30.04,29.71,7,2,14,0.01
2012-2-23,73,68,63,68,65,62,95,88,82,29.76,29.67,9,4,20,0.01
2012-2-24,78,62,50,68,53,30,92,73,47,30.12,29.70,11,4,23,0.01
2012-2-25,57,48,39,37,29,20,79,51,23,30.31,30.11,4,1,11,0.01
2012-2-26,51,47,42,47,39,32,97,73,52,30.36,30.24,5,1,10,0.00
2012-2-27,67,56,48,60,54,47,99,94,78,30.34,30.25,3,1,7,0.03
2012-2-28,71,62,57,65,60,56,98,92,80,30.29,30.16,3,1,8,0.01
2012-2-29,74,66,61,66,63,60,99,91,72,30.17,29.97,6,2,14,0.01
2012-3-1,74,69,66,70,67,64,97,92,84,29.98,29.86,5,2,15,0.32
2012-3-2,78,70,65,69,67,64,99,90,66,29.91,29.72,8,3,18,0.06
2012-3-3,70,60,47,68,57,41,97,92,79,29.84,29.67,6,2,16,0.45
2012-3-4,61,49,39,43,31,22,86,55,23,30.16,29.83,7,2,19,0.13
2012-3-5,71,54,38,42,34,25,92,53,21,30.37,30.16,9,2,15,0.00
2012-3-6,69,53,41,49,33,25,76,47,26,30.45,30.35,6,2,13,0.00
2012-3-7,75,62,53,55,52,49,89,72,46,30.39,30.25,6,2,12,0.00
2012-3-8,81,66,55,63,58,51,97,77,49,30.26,30.11,6,2,12,0.00
2012-3-9,64,60,48,63,58,39,98,92,70,30.25,30.09,3,0,9,0.25
2012-3-10,73,58,42,48,40,-100,86,57,35,30.31,30.20,7,2,13,0.01
2012-3-11,69,62,54,61,54,41,83,73,55,30.32,30.20,8,3,14,0.00
2012-3-12,74,66,62,66,62,58,96,85,71,30.26,30.16,6,2,11,0.00
2012-3-13,79,66,60,67,63,59,99,91,63,30.24,30.12,3,0,7,0.00
2012-3-14,82,67,57,66,61,56,99,84,52,30.24,30.12,3,0,9,0.01
2012-3-15,86,70,56,66,59,54,99,73,34,30.26,30.11,4,0,6,0.01
2012-3-16,85,69,56,63,58,55,97,72,36,30.22,30.08,4,1,9,0.00
2012-3-17,85,70,54,63,57,53,97,68,39,30.22,30.09,4,1,9,0.00
2012-3-18,86,70,54,62,57,53,97,68,36,30.22,30.09,3,0,11,0.00
2012-3-19,85,70,55,64,58,54,97,71,40,30.14,30.02,5,1,11,0.00
2012-3-20,85,70,60,64,58,-100,97,70,41,30.08,29.96,7,2,14,0.00
2012-3-21,84,71,62,66,59,55,90,68,43,30.07,29.98,5,2,16,0.00
2012-3-22,85,71,63,68,62,-100,94,76,47,30.08,29.97,7,-5,16,0.00
2012-3-23,69,66,61,68,65,60,98,95,87,30.05,29.92,3,1,9,0.56
2012-3-24,80,68,57,65,58,50,99,75,41,29.93,29.79,6,1,12,0.01
2012-3-25,78,64,52,55,50,48,90,65,37,29.93,29.83,4,1,13,0.01
2012-3-26,83,66,52,56,53,50,94,66,35,30.01,29.91,4,0,10,0.00
2012-3-27,86,69,53,62,54,51,95,65,32,30.13,29.98,3,0,7,0.00
2012-3-28,82,68,55,65,59,54,97,76,44,30.16,30.01,7,1,13,0.00
2012-3-29,84,71,61,64,59,51,97,70,33,30.03,29.90,3,1,10,0.00
2012-3-30,79,67,62,68,65,60,98,92,66,29.97,29.85,6,1,19,0.90
2012-3-31,78,67,62,68,65,61,98,93,69,29.93,29.81,3,1,7,1.63
2012-4-1,85,73,64,70,66,63,99,82,51,29.91,29.78,4,1,9,0.03
2012-4-2,87,74,65,69,66,61,98,79,44,29.88,29.78,3,1,9,0.00
2012-4-3,83,71,64,69,65,61,98,83,52,29.94,29.85,5,1,11,0.00
2012-4-4,78,69,62,65,62,60,97,81,56,29.89,29.74,4,1,11,0.00
2012-4-5,78,64,56,67,61,55,98,91,65,29.80,29.66,5,0,15,0.72
2012-4-6,73,59,52,60,55,51,97,88,62,30.04,29.73,3,1,10,0.35
2012-4-7,74,60,49,54,47,41,98,70,31,30.20,30.03,5,1,11,0.01
2012-4-8,79,62,46,57,49,43,93,67,35,30.22,30.07,3,0,6,0.01
2012-4-9,83,66,54,58,53,49,95,69,32,30.10,29.97,3,0,8,0.00
2012-4-10,81,65,49,55,49,43,91,61,27,30.08,29.94,4,0,12,0.00
2012-4-11,74,62,52,55,49,44,94,65,34,30.09,29.98,3,1,9,0.00
2012-4-12,73,57,43,46,40,35,82,57,26,30.16,30.06,4,1,10,0.00
2012-4-13,79,62,43,50,44,39,86,56,27,30.16,30.08,3,0,7,0.00
2012-4-14,84,67,53,62,54,-100,91,67,38,30.21,30.07,4,1,10,0.00
2012-4-15,84,71,60,68,63,57,97,80,51,30.13,30.05,7,2,16,0.00
2012-4-16,85,71,60,70,64,59,97,81,52,30.16,30.04,4,1,10,0.04
2012-4-17,84,73,63,68,62,55,98,74,38,30.12,29.97,4,1,9,0.05
2012-4-18,70,65,61,66,63,60,98,94,85,30.01,29.90,3,1,8,1.38
2012-4-19,80,68,61,67,64,60,98,89,62,29.94,29.83,3,0,9,0.11
2012-4-20,83,70,63,68,64,60,96,82,58,29.87,29.73,3,0,8,0.00
2012-4-21,76,65,55,64,59,-100,98,87,62,29.79,29.59,1,0,6,0.26
2012-4-22,73,62,52,61,48,41,97,65,33,29.81,29.64,6,2,18,0.23
2012-4-23,65,55,46,45,40,32,89,60,31,29.96,29.80,6,2,15,0.00
2012-4-24,73,57,39,48,41,36,90,59,33,30.03,29.91,5,1,17,0.00
2012-4-25,82,66,50,58,53,46,94,65,38,30.03,29.92,6,3,16,0.00
2012-4-26,84,70,58,64,59,51,96,72,39,30.03,29.93,8,3,17,0.00
2012-4-27,84,72,63,66,63,60,97,76,46,30.07,29.96,6,2,11,0.00
2012-4-28,86,71,57,67,59,-100,97,72,43,30.07,29.98,4,1,9,0.00
2012-4-29,88,71,54,67,62,53,98,75,44,30.11,30.01,4,0,8,0.00
2012-4-30,94,78,62,69,65,61,96,68,35,30.10,29.97,3,0,10,0.00
2012-5-1,89,77,63,70,65,60,96,70,40,30.08,29.95,4,1,10,0.00
2012-5-2,86,74,66,73,69,64,96,84,54,30.05,29.96,5,0,12,0.01
2012-5-3,78,70,65,72,68,64,98,93,73,30.06,29.97,8,0,17,0.77
2012-5-4,87,74,64,73,68,63,99,83,55,30.06,29.94,3,0,6,0.16
2012-5-5,90,75,66,72,67,-100,98,82,49,30.01,29.85,3,0,6,0.00
2012-5-6,88,71,64,74,68,62,98,91,60,29.95,29.86,4,0,11,0.10
2012-5-7,90,73,60,69,64,59,99,77,43,29.92,29.80,2,0,5,0.01
2012-5-8,85,72,66,72,68,65,97,90,59,29.88,29.80,3,0,9,0.60
2012-5-9,78,69,59,71,66,58,98,91,74,29.85,29.76,3,0,7,0.20
2012-5-10,81,67,53,63,55,50,98,70,35,29.93,29.83,3,0,12,0.01
2012-5-11,83,68,54,61,55,50,90,66,35,30.05,29.92,4,0,8,0.01
2012-5-12,79,70,62,67,62,-100,93,79,63,30.15,30.01,6,1,10,0.16
2012-5-13,82,71,65,73,68,64,97,90,65,30.07,29.88,6,1,13,1.03
2012-5-14,83,73,66,71,67,64,98,83,52,29.96,29.86,4,0,10,0.63
2012-5-15,84,72,62,74,66,61,98,83,58,29.96,29.88,2,0,4,0.04
2012-5-16,87,74,62,68,64,57,98,73,37,29.96,29.84,2,0,6,0.02
2012-5-17,87,73,60,68,62,57,98,71,37,29.93,29.84,3,0,9,0.00
2012-5-18,86,72,60,65,61,58,94,71,44,29.97,29.88,4,1,9,0.00
2012-5-19,84,71,60,62,58,-100,95,68,38,30.05,29.94,4,1,11,0.00
2012-5-20,86,72,56,61,56,51,86,62,35,30.06,29.96,4,1,11,0.00
2012-5-21,90,74,62,67,62,58,90,69,36,30.00,29.88,3,1,14,0.00
2012-5-22,86,72,61,66,61,59,95,72,45,29.93,29.79,5,1,14,0.00
2012-5-23,90,75,58,69,61,55,96,67,31,29.86,29.76,4,1,14,0.00
2012-5-24,94,77,67,74,67,64,98,76,39,29.91,29.81,3,0,6,0.00
2012-5-25,96,80,65,70,65,60,96,64,32,30.03,29.90,3,0,7,0.00
2012-5-26,97,82,68,72,65,-100,89,62,34,30.06,29.95,4,1,9,0.00
2012-5-27,95,82,71,70,66,62,84,60,37,29.97,29.85,5,1,10,0.00
2012-5-28,93,78,67,72,67,63,92,71,45,29.88,29.76,6,1,12,0.02
2012-5-29,93,80,68,72,69,67,97,73,45,29.83,29.74,4,1,11,0.02
2012-5-30,97,82,67,70,65,53,91,61,24,29.83,29.73,4,1,14,0.00
2012-5-31,90,76,64,71,66,61,91,72,48,29.83,29.73,8,1,18,0.00
2012-6-1,85,73,66,70,67,60,95,81,57,29.87,29.75,3,0,9,0.08
2012-6-2,86,71,56,61,55,-100,94,63,33,29.96,29.85,4,1,13,0.08
2012-6-3,92,78,62,67,62,56,92,61,31,30.01,29.88,6,2,12,0.00
2012-6-4,94,80,69,72,67,62,97,69,37,29.90,29.75,5,2,15,0.00
2012-6-5,90,76,71,75,71,64,96,85,49,29.78,29.63,6,1,21,0.14
2012-6-6,90,76,70,76,72,69,98,89,55,29.85,29.70,2,0,7,0.17
2012-6-7,77,73,69,73,70,67,97,91,80,29.91,29.83,4,1,9,0.01
2012-6-8,84,75,66,69,67,64,96,78,52,29.96,29.88,6,2,13,0.01
2012-6-9,77,71,68,73,67,-100,98,91,79,29.95,29.85,4,1,10,1.36
2012-6-10,76,72,69,75,71,68,98,97,93,30.00,29.89,7,0,16,2.18
2012-6-11,80,73,69,76,71,68,98,95,84,30.07,29.96,6,1,19,0.95
2012-6-12,89,77,68,73,71,67,98,83,57,30.02,29.88,5,1,11,0.33
2012-6-13,92,79,70,74,71,69,96,79,49,29.94,29.84,2,0,7,0.02
2012-6-14,93,77,68,75,71,66,98,82,50,30.01,29.86,8,1,24,0.45
2012-6-15,86,75,66,72,68,65,98,81,56,30.06,29.95,6,1,11,0.46
2012-6-16,84,73,64,67,62,-100,93,73,47,30.13,30.01,6,1,12,0.01
2012-6-17,89,75,64,66,64,61,93,69,41,30.08,29.93,3,1,8,0.00
2012-6-18,91,77,63,71,66,61,97,73,38,30.03,29.94,4,0,10,0.00
2012-6-19,88,78,66,71,65,61,97,68,41,30.08,30.00,4,1,9,0.00
2012-6-20,86,74,64,69,65,61,93,75,53,30.06,29.97,4,1,8,0.00
2012-6-21,87,76,64,73,67,62,92,75,55,30.00,29.86,4,1,10,0.00
2012-6-22,92,81,69,74,70,66,91,72,47,29.89,29.80,4,0,8,0.00
2012-6-23,92,81,70,75,72,69,97,77,52,29.88,29.80,4,1,13,0.00
2012-6-24,79,75,72,74,71,68,94,87,80,29.87,29.72,6,2,16,0.00
2012-6-25,86,77,71,75,71,68,90,81,68,29.72,29.57,7,3,15,0.00
2012-6-26,92,81,72,73,70,65,95,73,47,29.75,29.56,7,2,15,0.00
2012-6-27,92,77,63,66,62,57,96,62,33,29.98,29.75,4,1,7,0.00
2012-6-28,97,79,62,68,64,60,92,63,33,30.06,29.96,4,0,8,0.00
2012-6-29,97,83,67,77,72,64,93,71,47,29.99,29.84,4,1,9,0.00
2012-6-30,98,87,76,79,76,74,95,72,49,29.91,29.83,4,2,12,0.00
2012-7-1,98,86,74,77,75,71,92,72,49,29.99,29.89,5,1,12,0.00
2012-7-2,94,80,70,76,72,69,97,79,49,30.09,29.95,8,1,20,1.35
2012-7-3,95,80,70,78,73,68,97,83,52,30.01,29.91,6,1,14,0.30
2012-7-4,94,78,68,78,72,67,98,83,51,30.05,29.95,6,0,17,0.16
2012-7-5,94,82,70,77,73,69,98,77,51,30.03,29.89,3,0,7,0.00
2012-7-6,91,80,72,76,73,70,96,82,57,29.99,29.89,6,1,13,0.14
2012-7-7,94,81,71,75,73,70,97,78,49,30.03,29.94,4,1,10,0.01
2012-7-8,92,81,71,76,73,70,97,80,52,30.06,29.93,7,1,12,0.00
2012-7-9,94,80,71,77,72,69,97,79,49,30.00,29.88,6,1,12,0.00
2012-7-10,91,76,68,75,70,67,98,84,52,29.98,29.92,4,0,11,0.00
2012-7-11,90,76,67,76,71,66,98,85,55,30.01,29.92,7,0,13,0.61
2012-7-12,93,76,69,76,71,68,98,87,51,30.02,29.92,4,0,11,1.56
2012-7-13,91,78,69,78,73,68,98,86,56,30.02,29.93,4,1,8,1.45
2012-7-14,91,79,72,77,74,71,98,85,62,30.06,29.97,5,1,12,0.14
2012-7-15,95,81,71,76,72,68,98,78,43,30.10,29.97,3,0,7,0.03
2012-7-16,96,83,71,77,73,70,98,76,46,30.06,29.89,3,0,10,0.00
2012-7-17,94,78,70,80,72,68,97,84,53,30.01,29.88,4,0,11,1.28
2012-7-18,92,79,68,75,71,67,98,79,52,30.03,29.92,4,1,10,0.71
2012-7-19,90,78,71,76,72,70,98,84,56,30.08,29.98,3,1,9,0.30
2012-7-20,86,77,70,75,73,69,98,87,65,30.03,29.95,6,1,13,0.14
2012-7-21,90,80,73,76,74,71,97,83,58,30.04,29.97,7,1,13,0.01
2012-7-22,94,80,72,77,72,69,98,79,51,30.13,30.01,7,0,20,0.00
2012-7-23,93,81,70,77,73,68,97,77,51,30.14,30.01,3,0,8,0.31
2012-7-24,95,82,73,81,76,71,98,84,59,30.06,29.92,2,0,10,0.31
2012-7-25,95,84,75,79,76,72,96,77,50,29.98,29.89,4,0,8,0.01
2012-7-26,95,81,74,80,76,72,97,84,54,29.96,29.88,4,1,16,0.89
2012-7-27,93,81,72,79,75,71,97,83,55,30.00,29.90,9,1,15,0.25
2012-7-28,91,80,71,78,74,70,97,85,62,30.04,29.93,2,0,6,0.06
2012-7-29,95,83,73,80,75,72,97,79,50,29.99,29.88,3,0,10,0.00
2012-7-30,96,82,71,79,75,70,97,82,50,29.98,29.85,6,1,12,1.29
2012-7-31,78,73,71,74,72,70,98,95,86,30.03,29.86,4,0,9,1.59
2012-8-1,94,82,73,80,76,72,98,83,57,29.94,29.83,2,0,4,0.06
2012-8-2,94,81,73,81,75,71,98,84,53,29.90,29.83,4,1,10,0.00
2012-8-3,94,79,70,77,73,69,98,83,54,29.96,29.86,3,0,10,0.00
2012-8-4,93,79,70,78,74,69,98,85,55,30.06,29.93,3,0,7,0.02
2012-8-5,91,80,70,77,73,69,97,83,59,30.09,29.96,4,1,10,0.02
2012-8-6,81,76,73,77,74,72,98,95,86,30.02,29.91,2,0,5,0.31
2012-8-7,80,75,70,76,74,69,98,95,86,29.96,29.88,3,0,9,4.65
2012-8-8,88,77,72,80,74,71,99,92,76,29.98,29.90,5,0,13,0.30
2012-8-9,88,76,72,78,73,71,99,92,70,29.96,29.83,7,1,15,0.06
2012-8-10,78,73,69,74,71,68,98,94,85,29.91,29.81,5,1,16,0.36
2012-8-11,87,77,72,78,72,-100,98,90,66,29.92,29.80,4,1,11,0.02
2012-8-12,89,76,66,72,68,63,99,78,44,29.99,29.91,3,0,7,0.01
2012-8-13,91,77,63,75,69,62,97,78,47,30.02,29.91,3,1,8,0.01
2012-8-14,90,77,68,79,74,67,98,90,66,29.96,29.84,7,1,17,1.60
2012-8-15,93,78,69,78,74,68,99,87,58,29.98,29.88,2,0,10,0.81
2012-8-16,93,79,71,79,74,69,97,86,57,30.01,29.92,5,0,12,0.08
2012-8-17,87,76,68,77,72,67,99,89,68,29.99,29.86,3,0,8,0.09
2012-8-18,89,77,69,77,72,68,98,86,61,29.93,29.82,5,0,12,0.28
2012-8-19,83,75,70,75,72,69,98,91,76,29.88,29.82,5,1,10,0.34
2012-8-20,80,74,71,74,72,70,98,92,79,29.91,29.84,2,0,6,0.02
2012-8-21,87,74,68,74,70,67,98,89,60,29.97,29.88,6,0,15,1.71
2012-8-22,87,74,66,75,70,65,99,89,65,30.03,29.93,2,0,5,1.46
2012-8-23,90,76,67,73,69,66,98,82,52,30.07,29.97,3,0,7,0.00
2012-8-24,90,77,66,74,70,65,98,81,52,30.06,29.95,3,0,6,0.00
2012-8-25,87,76,67,74,70,66,98,83,60,30.06,29.97,5,0,10,0.00
2012-8-26,88,76,65,71,67,64,96,76,48,30.08,29.94,4,0,10,0.00
2012-8-27,86,76,67,76,71,65,93,84,70,29.96,29.78,7,2,14,0.00
2012-8-28,91,82,75,79,74,70,93,79,58,29.82,29.75,7,3,15,0.00
2012-8-29,88,79,74,78,75,72,97,89,69,29.85,29.77,4,2,12,0.45
2012-8-30,86,77,74,78,75,72,97,94,76,30.05,29.83,4,1,10,0.94
2012-8-31,91,81,75,78,76,74,98,86,63,30.15,30.04,3,0,7,0.12
2012-9-1,92,81,72,78,74,71,99,83,54,30.15,30.01,2,0,6,0.00
2012-9-2,90,80,71,77,74,70,98,84,59,30.05,29.92,5,1,10,0.00
2012-9-3,88,78,70,78,75,68,97,91,69,29.98,29.87,4,1,11,0.09
2012-9-4,76,72,69,73,71,68,98,96,90,29.95,29.84,4,1,9,3.56
2012-9-5,84,76,72,77,74,71,98,93,78,29.88,29.80,3,0,9,0.38
2012-9-6,89,79,71,78,74,70,99,87,63,29.94,29.84,3,0,8,0.01
2012-9-7,91,79,70,78,73,69,98,84,54,29.93,29.80,3,0,7,0.01
2012-9-8,91,78,71,78,73,70,98,85,60,29.83,29.70,3,0,8,0.00
2012-9-9,83,73,62,70,63,59,96,75,45,29.96,29.81,2,0,9,0.00
2012-9-10,84,70,59,69,62,57,94,77,47,30.04,29.96,2,0,6,0.00
2012-9-11,83,71,60,66,62,57,96,75,43,30.16,30.03,5,1,11,0.00
2012-9-12,84,73,65,67,64,59,92,75,44,30.19,30.09,6,1,12,0.00
2012-9-13,83,73,66,68,65,64,94,78,52,30.18,30.08,5,1,11,0.00
2012-9-14,85,74,65,70,67,64,97,81,57,30.13,30.04,4,1,11,0.00
2012-9-15,86,76,68,72,69,65,94,81,61,30.10,29.99,4,0,8,0.00
2012-9-16,89,75,66,75,70,65,98,85,57,30.03,29.91,7,0,15,0.03
2012-9-17,82,72,68,76,70,67,98,95,78,29.97,29.74,2,0,8,1.90
2012-9-18,80,74,68,73,70,66,98,89,69,29.90,29.69,7,2,15,1.30
2012-9-19,81,68,59,67,61,57,97,81,51,30.03,29.89,2,0,6,0.01
2012-9-20,85,69,55,65,60,54,97,76,42,30.04,29.95,1,0,5,0.01
2012-9-21,86,72,62,72,66,61,98,85,55,30.02,29.92,2,0,5,0.00
2012-9-22,88,74,63,73,66,-100,98,81,52,30.04,29.95,3,0,8,0.01
2012-9-23,87,72,60,67,60,55,96,70,37,30.11,30.02,3,0,10,0.01
2012-9-24,81,67,55,59,53,48,87,64,33,30.15,30.03,3,0,7,0.00
2012-9-25,84,67,51,66,57,48,92,73,42,30.13,30.06,2,0,7,0.00
2012-9-26,86,73,62,69,64,59,95,78,52,30.13,30.04,4,1,9,0.00
2012-9-27,87,73,65,74,68,62,96,85,59,30.13,30.01,3,0,7,0.00
2012-9-28,89,75,65,74,69,64,98,83,47,30.06,29.92,1,0,5,0.00
2012-9-29,86,74,67,75,70,66,98,87,59,29.98,29.83,3,0,7,0.08
2012-9-30,80,72,69,74,70,68,98,96,82,29.86,29.66,3,0,7,1.35
2012-10-1,79,74,69,76,72,66,98,93,84,29.66,29.54,6,2,17,1.61
2012-10-2,75,66,59,66,63,57,98,89,65,29.97,29.65,3,1,10,0.03
2012-10-3,74,65,56,65,60,55,99,87,65,30.13,29.97,1,0,4,0.00
2012-10-4,82,69,61,70,64,60,98,87,59,30.21,30.11,2,0,6,0.01
2012-10-5,83,71,62,73,68,61,98,91,72,30.12,29.96,3,0,8,0.01
2012-10-6,86,74,65,73,67,64,99,82,48,29.99,29.86,3,0,8,0.01
2012-10-7,77,65,57,66,61,53,96,88,67,30.04,29.93,3,0,10,0.01
2012-10-8,76,62,51,61,55,50,95,78,56,30.07,29.98,2,0,8,0.00
2012-10-9,77,62,53,63,57,51,97,86,59,30.08,29.99,2,0,7,0.00
2012-10-10,80,65,53,65,59,52,99,84,54,30.13,30.04,3,0,9,0.00
2012-10-11,81,66,55,66,60,54,98,85,55,30.21,30.11,2,0,6,0.01
2012-10-12,85,69,57,68,62,56,98,83,53,30.23,30.13,1,0,6,0.01
2012-10-13,82,70,62,68,64,60,95,82,59,30.22,30.12,4,1,9,0.00
2012-10-14,83,71,63,70,65,61,97,84,53,30.14,29.96,2,0,9,0.00
2012-10-15,82,69,58,70,63,53,99,83,50,29.97,29.83,3,0,12,0.02
2012-10-16,74,60,48,55,51,47,97,75,39,29.96,29.84,3,0,9,0.01
2012-10-17,80,65,53,58,54,50,95,73,39,29.89,29.77,3,0,9,0.00
2012-10-18,76,64,58,67,62,57,98,92,63,29.83,29.75,3,0,7,0.82
2012-10-19,75,60,47,58,48,41,98,70,30,29.88,29.77,5,1,12,0.01
2012-10-20,75,58,44,54,48,43,97,74,39,29.96,29.85,3,0,9,0.01
2012-10-21,78,61,48,57,51,47,98,75,39,30.10,29.96,3,0,8,0.00
2012-10-22,79,63,52,59,54,49,93,74,42,30.15,30.04,4,0,8,0.00
2012-10-23,80,64,51,63,57,49,95,80,53,30.12,30.01,2,0,6,0.00
2012-10-24,80,67,57,65,60,56,98,82,52,30.10,29.98,4,0,8,0.00
2012-10-25,83,68,58,69,62,57,98,83,52,30.00,29.91,4,0,8,0.00
2012-10-26,83,69,61,69,62,59,97,81,51,29.95,29.83,4,1,8,0.01
2012-10-27,66,59,51,61,54,48,96,86,70,29.87,29.77,4,2,12,0.01
2012-10-28,63,53,46,49,46,39,92,79,57,29.94,29.80,5,2,16,0.00
2012-10-29,60,48,39,40,36,32,88,65,39,29.99,29.86,6,2,22,0.00
2012-10-30,62,48,37,37,33,28,80,59,30,29.93,29.83,5,2,20,0.00
2012-10-31,72,54,38,50,43,36,95,70,40,29.98,29.89,6,1,14,0.00
2012-11-1,73,57,45,51,45,36,96,69,34,30.03,29.92,3,0,8,0.00
2012-11-2,80,59,42,62,52,41,97,79,49,30.04,29.93,6,1,12,0.00
2012-11-3,84,67,53,67,60,52,98,81,46,30.08,29.98,3,0,9,0.00
2012-11-4,78,64,53,66,58,52,99,82,50,30.04,29.94,4,0,10,0.00
2012-11-5,73,57,43,53,46,38,96,73,29,30.04,29.87,3,0,8,0.07
2012-11-6,59,52,47,52,48,46,98,86,66,29.96,29.86,3,0,10,0.08
2012-11-7,64,51,42,48,43,37,98,76,38,30.06,29.88,4,1,11,0.01
2012-11-8,65,48,35,44,40,34,98,77,41,30.19,30.06,3,0,8,0.01
2012-11-9,71,51,36,48,40,35,98,73,31,30.28,30.17,2,0,6,0.00
2012-11-10,74,54,39,51,42,37,96,70,30,30.31,30.21,3,0,7,0.00
2012-11-11,78,60,45,56,50,41,91,74,45,30.31,30.19,5,1,13,0.00
2012-11-12,74,62,52,66,58,49,97,88,68,30.23,30.12,5,1,12,0.61
2012-11-13,62,49,38,49,38,33,94,70,38,30.29,30.17,4,1,10,0.43
2012-11-14,56,48,40,53,45,-100,97,89,71,30.23,30.17,3,1,11,0.05
2012-11-15,53,49,47,49,46,44,96,92,84,30.24,30.16,3,1,8,0.03
2012-11-16,63,50,42,51,45,41,96,87,57,30.25,30.16,4,1,8,0.00
2012-11-17,61,48,36,45,41,35,98,80,50,30.31,30.22,5,1,12,0.00
2012-11-18,67,52,41,49,43,36,89,71,48,30.29,30.20,4,1,9,0.00
2012-11-19,69,55,45,52,48,43,96,81,48,30.24,30.12,2,0,7,0.00
2012-11-20,67,56,48,57,52,47,98,85,61,30.15,30.04,1,0,5,0.00
2012-11-21,74,57,46,54,49,45,97,77,44,30.13,30.04,3,0,7,0.00
2012-11-22,73,56,44,51,47,43,97,76,40,30.21,30.11,2,0,6,0.00
2012-11-23,73,57,43,55,48,42,98,75,40,30.21,30.06,4,1,12,0.00
2012-11-24,60,48,35,49,35,28,90,64,30,30.19,30.09,3,1,10,0.00
2012-11-25,63,43,30,33,28,22,89,61,22,30.21,30.08,2,0,6,0.00
2012-11-26,68,50,33,51,43,31,97,79,46,30.22,30.11,3,0,8,0.00
2012-11-27,59,56,52,58,54,48,98,94,84,30.19,30.04,1,0,7,0.91
2012-11-28,60,49,40,51,44,38,97,84,48,30.34,30.19,4,0,7,0.03
2012-11-29,60,47,36,51,44,35,98,91,69,30.38,30.26,2,0,7,0.01
2012-11-30,71,56,47,58,52,46,97,87,59,30.29,30.19,3,0,7,0.01
2012-12-1,74,58,48,58,51,47,97,81,44,30.28,30.20,3,0,8,0.01
2012-12-2,76,59,50,61,54,49,98,85,51,30.31,30.19,2,0,8,0.01
2012-12-3,77,61,51,61,54,50,97,81,45,30.26,30.16,4,0,11,0.00
2012-12-4,78,62,50,64,56,49,98,83,48,30.26,30.15,4,0,10,0.00
2012-12-5,75,60,50,60,54,49,98,82,51,30.17,30.03,3,0,9,0.01
2012-12-6,74,60,52,59,52,-100,95,80,52,30.05,29.95,4,1,10,0.01
2012-12-7,63,59,56,59,57,55,97,92,86,30.02,29.92,3,1,8,0.00
2012-12-8,75,62,54,65,60,53,98,92,69,30.01,29.91,3,0,8,0.00
2012-12-9,74,65,61,65,61,58,98,88,61,30.06,29.91,5,0,10,0.00
2012-12-10,74,65,54,68,63,51,98,92,72,29.93,29.72,7,2,18,0.03
2012-12-11,53,46,40,52,43,38,95,88,80,30.12,29.85,3,0,7,0.06
2012-12-12,48,42,36,43,39,34,97,89,77,30.19,30.06,2,0,7,0.06
2012-12-13,61,45,35,47,41,34,98,87,59,30.29,30.19,3,1,9,0.01
2012-12-14,65,49,38,50,44,37,98,86,59,30.31,30.13,5,1,12,0.00
2012-12-15,67,55,46,56,51,45,97,87,67,30.16,30.01,3,0,8,0.00
2012-12-16,69,61,53,65,59,52,98,93,83,30.02,29.83,4,1,11,0.11
2012-12-17,62,59,56,61,58,55,98,97,93,29.91,29.70,4,1,13,0.93
2012-12-18,66,54,41,58,47,39,98,82,39,30.01,29.79,2,0,6,0.02
2012-12-19,72,52,37,53,45,36,99,80,39,30.09,29.98,3,0,7,0.01
2012-12-20,70,57,43,67,51,32,96,82,51,30.07,29.73,9,2,17,0.44
2012-12-21,52,42,32,32,22,16,66,47,24,30.26,30.07,6,2,17,0.26
2012-12-22,59,40,25,28,22,15,81,53,22,30.35,30.22,3,0,10,0.00
2012-12-23,55,42,31,41,34,26,89,73,47,30.23,30.05,1,0,5,0.00
2012-12-24,71,58,47,64,55,41,98,90,72,30.05,29.83,5,1,16,1.13
2012-12-25,67,62,58,65,61,57,99,97,93,29.89,29.55,13,2,32,1.75
2012-12-26,64,44,36,62,39,31,97,80,69,30.06,29.57,13,5,32,1.19
2012-12-27,50,38,32,38,33,30,95,82,59,30.14,30.05,4,1,9,0.00
2012-12-28,54,45,30,50,40,29,97,83,63,30.07,29.74,4,1,12,0.42
2012-12-29,52,44,37,51,40,29,98,85,70,30.28,29.74,7,3,18,0.43
2012-12-30,52,37,27,33,28,24,91,73,39,30.45,30.30,3,0,9,0.00
2012-12-31,60,46,31,51,41,29,93,81,63,30.36,30.11,1,0,6,0.00
2013-1-1,73,62,52,65,58,50,97,87,69,30.11,29.91,7,2,17,0.16